Map

Track Data

SID SEASON NUMBER BASIN SUBBASIN NAME ISO_TIME NATURE LAT LON WMO_WIND WMO_PRES WMO_AGENCY TRACK_TYPE DIST2LAND LANDFALL IFLAG USA_AGENCY USA_ATCF_ID USA_LAT USA_LON USA_RECORD USA_STATUS USA_WIND USA_PRES USA_SSHS USA_R34_NE USA_R34_SE USA_R34_SW USA_R34_NW USA_R50_NE USA_R50_SE USA_R50_SW USA_R50_NW USA_R64_NE USA_R64_SE USA_R64_SW USA_R64_NW USA_POCI USA_ROCI USA_RMW USA_EYE TOKYO_LAT TOKYO_LON TOKYO_GRADE TOKYO_WIND TOKYO_PRES TOKYO_R50_DIR TOKYO_R50_LONG TOKYO_R50_SHORT TOKYO_R30_DIR TOKYO_R30_LONG TOKYO_R30_SHORT TOKYO_LAND CMA_LAT CMA_LON CMA_CAT CMA_WIND CMA_PRES HKO_LAT HKO_LON HKO_CAT HKO_WIND HKO_PRES NEWDELHI_LAT NEWDELHI_LON NEWDELHI_GRADE NEWDELHI_WIND NEWDELHI_PRES NEWDELHI_CI NEWDELHI_DP NEWDELHI_POCI REUNION_LAT REUNION_LON REUNION_TYPE REUNION_WIND REUNION_PRES REUNION_TNUM REUNION_CI REUNION_RMW REUNION_R34_NE REUNION_R34_SE REUNION_R34_SW REUNION_R34_NW REUNION_R50_NE REUNION_R50_SE REUNION_R50_SW REUNION_R50_NW REUNION_R64_NE REUNION_R64_SE REUNION_R64_SW REUNION_R64_NW BOM_LAT BOM_LON BOM_TYPE BOM_WIND BOM_PRES BOM_TNUM BOM_CI BOM_RMW BOM_R34_NE BOM_R34_SE BOM_R34_SW BOM_R34_NW BOM_R50_NE BOM_R50_SE BOM_R50_SW BOM_R50_NW BOM_R64_NE BOM_R64_SE BOM_R64_SW BOM_R64_NW BOM_ROCI BOM_POCI BOM_EYE BOM_POS_METHOD BOM_PRES_METHOD NADI_LAT NADI_LON NADI_CAT NADI_WIND NADI_PRES WELLINGTON_LAT WELLINGTON_LON WELLINGTON_WIND WELLINGTON_PRES DS824_LAT DS824_LON DS824_STAGE DS824_WIND DS824_PRES TD9636_LAT TD9636_LON TD9636_STAGE TD9636_WIND TD9636_PRES TD9635_LAT TD9635_LON TD9635_WIND TD9635_PRES TD9635_ROCI NEUMANN_LAT NEUMANN_LON NEUMANN_CLASS NEUMANN_WIND NEUMANN_PRES MLC_LAT MLC_LON MLC_CLASS MLC_WIND MLC_PRES USA_GUST BOM_GUST BOM_GUST_PER REUNION_GUST REUNION_GUST_PER USA_SEAHGT USA_SEARAD_NE USA_SEARAD_SE USA_SEARAD_SW USA_SEARAD_NW STORM_SPEED STORM_DIR
1932316N10083 1932 73 NI BB NOT_NAMED 1932-11-11 00:00:00 TS 9.90000 83.1000 main 248 245 _________O____ -1 9.90000 83.1000 TC 30 5 341
1932316N10083 1932 73 NI BB NOT_NAMED 1932-11-11 03:00:00 TS 10.1250 83.0217 main 252 252 _________PO___ -1 10.2375 82.9826 TC 30 9.90000 83.1000 1 6 345
1932316N10083 1932 73 NI BB NOT_NAMED 1932-11-11 06:00:00 TS 10.4756 82.9513 main 276 266 _________OP___ -1 10.6000 82.9000 TC 30 10.2891 83.0282 1 7 352
1932316N10083 1932 73 NI BB NOT_NAMED 1932-11-11 09:00:00 TS 10.8597 82.9150 main 291 291 _________PP___ -1 11.0000 82.8775 TC 30 10.6726 82.9650 1 8 357
1932316N10083 1932 73 NI BB NOT_NAMED 1932-11-11 12:00:00 TS 11.2224 82.9096 main 313 310 _________OP___ -1 11.4000 82.9000 TC 30 11.0448 82.9193 1 7 0
1932316N10083 1932 73 NI BB NOT_NAMED 1932-11-11 15:00:00 TS 11.5787 82.9138 main 310 301 _________PO___ -1 11.7575 82.9275 TC 30 11.4000 82.9000 1 7 2
1932316N10083 1932 73 NI BB NOT_NAMED 1932-11-11 18:00:00 TS 11.9184 82.9583 main 311 306 _________OP___ -1 12.1000 83.0000 TC 30 11.7367 82.9166 1 7 11
1932316N10083 1932 73 NI BB NOT_NAMED 1932-11-11 21:00:00 TS 12.2486 83.0430 main 306 305 _________PP___ -1 12.4274 83.1052 TC 30 12.0697 82.9807 1 7 19
1932316N10083 1932 73 NI BB NOT_NAMED 1932-11-12 00:00:00 TS 12.6089 83.2022 main 324 321 _________OP___ -1 12.8000 83.3000 TC 30 12.4179 83.1044 1 9 27
1932316N10083 1932 73 NI BB NOT_NAMED 1932-11-12 03:00:00 TS 13.0425 83.4599 main 348 346 _________PO___ -1 13.2851 83.6199 TC 30 12.8000 83.3000 1 11 32
1932316N10083 1932 73 NI BB NOT_NAMED 1932-11-12 06:00:00 TS 13.5196 83.7869 main 378 349 _________OP___ -1 13.8000 84.0000 TC 30 13.2392 83.5738 1 12 35
1932316N10083 1932 73 NI BB NOT_NAMED 1932-11-12 09:00:00 TS 13.9851 84.1300 main 349 333 _________PP___ -1 14.2574 84.3427 TC 30 13.7128 83.9173 1 12 37
1932316N10083 1932 73 NI BB NOT_NAMED 1932-11-12 12:00:00 TS 14.4524 84.5011 main 332 332 _________OP___ -1 14.7000 84.7000 TC 30 14.2048 84.3021 1 12 39
1932316N10083 1932 73 NI BB NOT_NAMED 1932-11-12 15:00:00 TS 14.9213 84.9001 main 337 330 _________PO___ -1 15.1425 85.1001 TC 30 14.7000 84.7000 1 12 39
1932316N10083 1932 73 NI BB NOT_NAMED 1932-11-12 18:00:00 TS 15.3895 85.2921 main 332 312 _________OP___ -1 15.6000 85.5000 TC 30 15.1791 85.0841 1 12 38
1932316N10083 1932 73 NI BB NOT_NAMED 1932-11-12 21:00:00 TS 15.8788 85.6688 main 317 294 _________PP___ -1 16.0999 85.8651 TC 30 15.6576 85.4725 1 12 36
1932316N10083 1932 73 NI BB NOT_NAMED 1932-11-13 00:00:00 TS 16.3661 86.0249 main 293 284 _________OP___ -1 16.6000 86.2000 TC 30 16.1323 85.8497 1 12 35
1932316N10083 1932 73 NI BB NOT_NAMED 1932-11-13 03:00:00 TS 16.8287 86.3576 main 292 269 _________PO___ -1 17.0574 86.5152 TC 30 16.6000 86.2000 1 11 33
1932316N10083 1932 73 NI BB NOT_NAMED 1932-11-13 06:00:00 TS 17.2825 86.6562 main 278 260 _________OP___ -1 17.5000 86.8000 TC 30 17.0650 86.5124 1 11 31
1932316N10083 1932 73 NI BB NOT_NAMED 1932-11-13 09:00:00 TS 17.7398 86.9266 main 260 218 _________PP___ -1 17.9574 87.0576 TC 30 17.5222 86.7956 1 10 29
1932316N10083 1932 73 NI BB NOT_NAMED 1932-11-13 12:00:00 TS 18.1841 87.1780 main 218 188 _________OP___ -1 18.4000 87.3000 TC 30 17.9682 87.0561 1 10 29
1932316N10083 1932 73 NI BB NOT_NAMED 1932-11-13 15:00:00 TS 18.6037 87.4288 main 188 168 _________PO___ -1 18.8075 87.5576 TC 30 18.4000 87.3000 1 10 30
1932316N10083 1932 73 NI BB NOT_NAMED 1932-11-13 18:00:00 TS 19.0112 87.6739 main 176 160 _________OP___ -1 19.2000 87.8000 TC 30 18.8224 87.5479 1 9 29
1932316N10083 1932 73 NI BB NOT_NAMED 1932-11-13 21:00:00 TS 19.4187 87.8977 main 160 151 _________PP___ -1 19.6075 88.0151 TC 30 19.2298 87.7804 1 9 27
1932316N10083 1932 73 NI BB NOT_NAMED 1932-11-14 00:00:00 TS 19.8112 88.0989 main 152 141 _________OP___ -1 20.0000 88.2000 TC 30 19.6224 87.9978 1 8 25
1932316N10083 1932 73 NI BB NOT_NAMED 1932-11-14 03:00:00 TS 20.1787 88.2751 main 146 123 _________PO___ -1 20.3574 88.3502 TC 30 20.0000 88.2000 1 8 24
1932316N10083 1932 73 NI BB NOT_NAMED 1932-11-14 06:00:00 TS 20.5341 88.4449 main 123 78 _________OP___ -1 20.7000 88.5000 TC 30 20.3683 88.3898 1 8 25
1932316N10083 1932 73 NI BB NOT_NAMED 1932-11-14 09:00:00 TS 20.8862 88.6328 main 78 45 _________PP___ -1 21.0500 88.7000 TC 30 20.7223 88.5656 1 8 26
1932316N10083 1932 73 NI BB NOT_NAMED 1932-11-14 12:00:00 TS 21.2326 88.8168 main 45 0 _________OP___ -1 21.4000 88.9000 TC 30 21.0652 88.7335 1 8 25
1932316N10083 1932 73 NI BB NOT_NAMED 1932-11-14 15:00:00 TS 21.5787 88.9751 main 0 0 _________PO___ -1 21.7574 89.0501 TC 30 21.4000 88.9000 1 7 24
1932316N10083 1932 73 NI BB NOT_NAMED 1932-11-14 18:00:00 TS 21.8883 89.1258 main 0 0 _________OP___ -1 22.1000 89.2000 TC 30 21.7295 89.0702 1 7 26
1932316N10083 1932 73 NI BB NOT_NAMED 1932-11-14 21:00:00 TS 22.1972 89.3014 main 0 0 _________PP___ -1 22.4101 89.3873 TC 30 22.0552 89.2442 1 7 29
1932316N10083 1932 73 NI BB NOT_NAMED 1932-11-15 00:00:00 TS 22.4855 89.4808 main 0 0 _________OP___ -1 22.7000 89.6000 TC 30 22.3783 89.4212 1 6 29
1932316N10083 1932 73 NI BB NOT_NAMED 1932-11-15 03:00:00 NR 22.7000 89.6000 main 0 __________O___ -1 TC 22.7000 89.6000 1 5 27

About IBTrACS Database

This database is a web-friendly format of International Best Track Archive for Climate Stewardship (IBTrACS), a global best track data archive curated by NOAA dating back to 1842.

Updated: 2021-10-27